createdAt,value
2019-04-01T00:01:09.494Z,78.45
2019-04-01T00:03:41.190Z,78.55
2019-04-01T00:06:12.841Z,78.49
2019-04-01T00:08:44.598Z,78.67
2019-04-01T00:11:16.284Z,78.76
2019-04-01T00:13:48.035Z,78.91
2019-04-01T00:16:19.677Z,79.13
2019-04-01T00:19:02.393Z,79.19
2019-04-01T00:21:24.590Z,79.46
2019-04-01T00:23:56.410Z,79.64
2019-04-01T00:26:27.867Z,79.95
2019-04-01T00:28:59.251Z,80.18
2019-04-01T00:31:30.872Z,80.47
2019-04-01T00:34:02.729Z,80.55
2019-04-01T00:36:34.085Z,80.77
2019-04-01T00:39:06.655Z,81.42
2019-04-01T00:41:39.642Z,81.44
2019-04-01T00:44:13.992Z,81.83
2019-04-01T00:46:45.829Z,81.75
2019-04-01T00:49:17.585Z,82.33
2019-04-01T00:51:49.444Z,82.30
2019-04-01T00:54:21.023Z,82.85
2019-04-01T00:56:52.867Z,82.83
2019-04-01T00:59:24.339Z,83.39
2019-04-01T01:01:55.960Z,83.98
2019-04-01T01:04:28.759Z,84.09
2019-04-01T01:07:00.308Z,84.15
2019-04-01T01:09:32.158Z,83.95
2019-04-01T01:12:03.632Z,84.86
2019-04-01T01:14:35.205Z,85.26
2019-04-01T01:17:06.948Z,86.19
2019-04-01T01:19:38.601Z,86.46
2019-04-01T01:22:10.363Z,86.95
2019-04-01T01:24:42.123Z,87.31
2019-04-01T01:27:13.689Z,86.63
2019-04-01T01:29:45.543Z,86.78
2019-04-01T01:32:17.103Z,87.73
2019-04-01T01:34:48.858Z,88.20
2019-04-01T01:37:20.721Z,88.43
2019-04-01T01:39:52.180Z,88.30
2019-04-01T01:42:23.817Z,88.39
2019-04-01T01:44:55.691Z,88.96
2019-04-01T01:47:27.457Z,89.22
2019-04-01T01:49:59.216Z,90.10
2019-04-01T01:52:30.768Z,90.19
2019-04-01T01:55:02.531Z,90.02
2019-04-01T01:57:34.189Z,89.76
2019-04-01T02:00:05.841Z,89.73
2019-04-01T02:02:38.629Z,89.84
2019-04-01T02:05:10.387Z,90.21
2019-04-01T02:07:41.842Z,89.90
2019-04-01T02:10:13.505Z,89.86
2019-04-01T02:12:44.849Z,90.43
2019-04-01T02:15:16.607Z,90.21
2019-04-01T02:17:48.370Z,90.38
2019-04-01T02:20:19.838Z,90.55
2019-04-01T02:22:51.479Z,90.87
2019-04-01T02:25:23.231Z,90.94
2019-04-01T02:27:54.921Z,90.71
2019-04-01T02:30:26.669Z,90.64
2019-04-01T02:32:58.422Z,90.90
2019-04-01T02:35:30.221Z,90.97
2019-04-01T02:38:01.649Z,91.20
2019-04-01T02:40:33.711Z,91.12
2019-04-01T02:43:05.156Z,90.97
2019-04-01T02:45:36.812Z,91.16
2019-04-01T02:48:08.173Z,91.14
2019-04-01T02:50:39.923Z,91.33
2019-04-01T02:53:11.781Z,91.63
2019-04-01T02:55:43.343Z,91.63
2019-04-01T02:58:15.016Z,91.61
2019-04-01T03:00:46.654Z,91.71
2019-04-01T03:03:18.253Z,91.67
2019-04-01T03:05:50.983Z,91.84
2019-04-01T03:08:22.857Z,92.23
2019-04-01T03:10:54.411Z,93.08
2019-04-01T03:13:26.098Z,92.96
2019-04-01T03:15:57.745Z,92.84
2019-04-01T03:18:29.375Z,92.93
2019-04-01T03:21:01.247Z,92.76
2019-04-01T03:23:32.800Z,92.81
2019-04-01T03:26:04.665Z,93.21
2019-04-01T03:28:36.429Z,93.63
2019-04-01T03:31:08.135Z,93.74
2019-04-01T03:33:39.938Z,93.71
2019-04-01T03:36:11.490Z,94.27
2019-04-01T03:38:43.365Z,94.02
2019-04-01T03:41:14.921Z,94.13
2019-04-01T03:43:46.572Z,94.12
2019-04-01T03:46:18.763Z,94.46
2019-04-01T03:48:50.199Z,94.80
2019-04-01T03:51:21.864Z,95.07
2019-04-01T03:53:54.540Z,95.14
2019-04-01T03:56:26.400Z,94.93
2019-04-01T03:58:58.005Z,94.80
2019-04-01T04:01:30.545Z,94.78
2019-04-01T04:04:02.089Z,94.75
2019-04-01T04:06:33.765Z,94.76
2019-04-01T04:09:06.222Z,94.65
2019-04-01T04:11:38.089Z,94.59
2019-04-01T04:14:10.875Z,94.84
2019-04-01T04:16:42.434Z,95.00
2019-04-01T04:19:15.382Z,94.87
2019-04-01T04:21:47.074Z,94.68
2019-04-01T04:24:18.724Z,94.54
2019-04-01T04:26:50.491Z,94.32
2019-04-01T04:29:22.255Z,94.17
2019-04-01T04:31:53.806Z,93.95
2019-04-01T04:34:25.375Z,93.81
2019-04-01T04:36:57.016Z,93.34
2019-04-01T04:39:28.883Z,93.09
2019-04-01T04:42:00.246Z,92.71
2019-04-01T04:44:31.989Z,92.56
2019-04-01T04:47:03.754Z,91.92
2019-04-01T04:49:35.307Z,91.30
2019-04-01T04:52:07.179Z,90.67
2019-04-01T04:54:38.625Z,90.08
2019-04-01T04:57:10.488Z,89.08
2019-04-01T04:59:42.346Z,88.25
2019-04-01T05:02:13.924Z,84.50
2019-04-01T05:04:45.669Z,83.01
2019-04-01T05:07:17.423Z,80.69
2019-04-01T05:09:48.760Z,77.23
2019-04-01T05:12:20.532Z,75.66
2019-04-01T05:14:52.090Z,75.20
2019-04-01T05:17:23.959Z,73.18
2019-04-01T05:19:55.508Z,72.17
2019-04-01T05:22:27.266Z,72.04
2019-04-01T05:24:59.132Z,72.27
2019-04-01T05:27:30.806Z,70.47
2019-04-01T05:30:03.369Z,70.01
2019-04-01T05:32:36.123Z,66.90
2019-04-01T05:35:08.022Z,65.77
2019-04-01T05:37:39.572Z,66.02
2019-04-01T05:40:11.738Z,66.26
2019-04-01T05:42:43.191Z,63.78
2019-04-01T05:45:14.703Z,62.04
2019-04-01T05:47:47.991Z,62.21
2019-04-01T05:50:19.803Z,61.81
2019-04-01T05:52:51.378Z,61.39
2019-04-01T05:55:22.920Z,63.27
2019-04-01T05:57:56.067Z,60.90
2019-04-01T06:00:32.352Z,59.42
2019-04-01T06:03:04.026Z,59.65
2019-04-01T06:05:35.843Z,59.75
2019-04-01T06:08:07.480Z,58.38
2019-04-01T06:10:38.897Z,58.07
2019-04-01T06:13:10.410Z,58.12
2019-04-01T06:15:42.214Z,56.90
2019-04-01T06:18:13.668Z,56.57
2019-04-01T06:20:45.331Z,57.03
2019-04-01T06:23:17.297Z,57.27
2019-04-01T06:25:48.753Z,56.57
2019-04-01T06:28:20.602Z,56.15
2019-04-01T06:30:52.158Z,57.43
2019-04-01T06:33:23.819Z,56.61
2019-04-01T06:35:55.477Z,56.09
2019-04-01T06:38:27.234Z,58.24
2019-04-01T06:40:58.790Z,56.80
2019-04-01T06:43:30.447Z,57.18
2019-04-01T06:46:01.907Z,57.76
2019-04-01T06:48:33.662Z,58.53
2019-04-01T06:51:05.215Z,58.55
2019-04-01T06:53:36.871Z,58.97
2019-04-01T06:56:08.736Z,57.44
2019-04-01T06:58:40.395Z,57.31
2019-04-01T07:01:13.640Z,61.28
2019-04-01T07:03:45.454Z,57.67
2019-04-01T07:06:17.105Z,57.92
2019-04-01T07:08:49.010Z,56.49
2019-04-01T07:11:20.536Z,56.73
2019-04-01T07:13:52.285Z,57.31
2019-04-01T07:16:24.052Z,56.41
2019-04-01T07:18:55.905Z,56.46
2019-04-01T07:21:27.565Z,57.37
2019-04-01T07:23:59.346Z,55.62
2019-04-01T07:26:30.805Z,56.86
2019-04-01T07:29:02.438Z,56.30
2019-04-01T07:31:34.304Z,55.30
2019-04-01T07:34:05.953Z,54.26
2019-04-01T07:36:37.520Z,54.32
2019-04-01T07:39:09.270Z,53.43
2019-04-01T07:41:40.863Z,52.95
2019-04-01T07:44:12.589Z,53.65
2019-04-01T07:46:44.449Z,53.31
2019-04-01T07:49:15.905Z,52.50
2019-04-01T07:51:47.689Z,52.40
2019-04-01T07:54:19.322Z,53.05
2019-04-01T07:56:51.079Z,54.03
2019-04-01T07:59:22.855Z,53.72
2019-04-01T08:01:54.493Z,54.02
2019-04-01T08:04:26.148Z,53.64
2019-04-01T08:06:57.918Z,53.09
2019-04-01T08:09:29.878Z,52.89
2019-04-01T08:12:01.332Z,53.05
2019-04-01T08:14:32.828Z,52.70
2019-04-01T08:17:04.549Z,52.11
2019-04-01T08:19:36.231Z,52.04
2019-04-01T08:22:07.659Z,50.65
2019-04-01T08:24:39.211Z,52.33
2019-04-01T08:27:10.976Z,50.31
2019-04-01T08:29:42.833Z,50.47
2019-04-01T08:32:14.506Z,50.89
2019-04-01T08:34:46.394Z,50.83
2019-04-01T08:37:17.504Z,50.05
2019-04-01T08:39:49.161Z,49.45
2019-04-01T08:42:21.024Z,49.65
2019-04-01T08:44:52.480Z,48.03
2019-04-01T08:47:24.238Z,49.13
2019-04-01T08:49:55.796Z,47.07
2019-04-01T08:52:27.555Z,47.77
2019-04-01T08:54:59.210Z,48.08
2019-04-01T08:57:31.074Z,46.02
2019-04-01T09:00:02.496Z,46.91
2019-04-01T09:02:35.922Z,46.11
2019-04-01T09:05:07.590Z,46.84
2019-04-01T09:07:39.253Z,47.94
2019-04-01T09:10:11.716Z,46.81
2019-04-01T09:12:43.168Z,47.48
2019-04-01T09:15:14.764Z,43.66
2019-04-01T09:17:46.688Z,44.31
2019-04-01T09:20:18.175Z,43.92
2019-04-01T09:22:49.905Z,43.76
2019-04-01T09:25:21.761Z,43.62
2019-04-01T09:27:53.419Z,43.30
2019-04-01T09:30:25.289Z,41.58
2019-04-01T09:32:57.042Z,41.56
2019-04-01T09:35:28.503Z,41.67
2019-04-01T09:38:00.364Z,42.82
2019-04-01T09:40:31.765Z,39.40
2019-04-01T09:43:03.598Z,39.95
2019-04-01T09:45:35.423Z,37.50
2019-04-01T09:48:07.207Z,37.05
2019-04-01T09:50:38.674Z,37.02
2019-04-01T09:53:10.302Z,36.09
2019-04-01T09:55:42.067Z,36.73
2019-04-01T09:58:13.522Z,36.37
2019-04-01T10:00:46.919Z,37.06
2019-04-01T10:03:19.708Z,36.73
2019-04-01T10:05:51.354Z,36.71
2019-04-01T10:08:23.021Z,36.79
2019-04-01T10:10:54.702Z,35.98
2019-04-01T10:13:26.438Z,35.97
2019-04-01T10:15:58.195Z,37.04
2019-04-01T10:18:30.999Z,36.50
2019-04-01T10:21:02.631Z,35.75
2019-04-01T10:23:34.487Z,35.68
2019-04-01T10:26:06.465Z,35.08
2019-04-01T10:28:37.829Z,36.03
2019-04-01T10:31:09.578Z,35.90
2019-04-01T10:33:41.288Z,36.08
2019-04-01T10:36:12.985Z,35.07
2019-04-01T10:38:46.657Z,36.25
2019-04-01T10:41:17.953Z,36.24
2019-04-01T10:43:49.503Z,35.41
2019-04-01T10:46:21.363Z,35.85
2019-04-01T10:48:53.004Z,35.52
2019-04-01T10:51:24.766Z,35.22
2019-04-01T10:53:56.788Z,33.88
2019-04-01T10:56:29.528Z,34.39
2019-04-01T10:59:01.174Z,33.36
2019-04-01T11:01:32.960Z,33.81
2019-04-01T11:04:04.637Z,34.98
2019-04-01T11:06:36.403Z,33.76
2019-04-01T11:09:10.633Z,33.27
2019-04-01T11:11:41.916Z,32.83
2019-04-01T11:14:13.619Z,33.64
2019-04-01T11:16:46.089Z,33.77
2019-04-01T11:19:17.629Z,33.29
2019-04-01T11:21:49.073Z,33.43
2019-04-01T11:24:20.733Z,33.38
2019-04-01T11:26:52.388Z,34.00
2019-04-01T11:29:25.771Z,33.34
2019-04-01T11:31:57.806Z,33.68
2019-04-01T11:34:29.453Z,34.30
2019-04-01T11:37:01.204Z,34.36
2019-04-01T11:39:33.075Z,33.33
2019-04-01T11:42:04.545Z,33.29
2019-04-01T11:44:36.002Z,33.71
2019-04-01T11:47:07.424Z,33.62
2019-04-01T11:49:39.192Z,33.81
2019-04-01T11:52:10.707Z,33.50
2019-04-01T11:54:42.570Z,33.48
2019-04-01T11:57:14.231Z,34.02
2019-04-01T11:59:45.913Z,34.65
2019-04-01T12:02:17.649Z,33.83
2019-04-01T12:04:49.406Z,33.89
2019-04-01T12:07:21.166Z,33.73
2019-04-01T12:09:52.935Z,33.62
2019-04-01T12:12:24.622Z,31.76
2019-04-01T12:14:56.137Z,32.63
2019-04-01T12:17:27.591Z,32.76
2019-04-01T12:19:59.453Z,34.01
2019-04-01T12:22:31.010Z,33.46
2019-04-01T12:25:02.774Z,33.00
2019-04-01T12:27:34.633Z,33.67
2019-04-01T12:30:06.908Z,34.23
2019-04-01T12:32:38.677Z,34.67
2019-04-01T12:35:10.425Z,35.19
2019-04-01T12:37:41.989Z,34.75
2019-04-01T12:40:13.738Z,34.58
2019-04-01T12:42:46.315Z,34.72
2019-04-01T12:45:18.084Z,35.28
2019-04-01T12:47:49.838Z,35.43
2019-04-01T12:50:21.313Z,35.38
2019-04-01T12:52:53.057Z,34.79
2019-04-01T12:55:24.614Z,34.62
2019-04-01T12:57:56.371Z,34.63
2019-04-01T13:00:29.370Z,34.39
2019-04-01T13:03:01.024Z,34.73
2019-04-01T13:05:32.773Z,34.84
2019-04-01T13:08:04.434Z,34.83
2019-04-01T13:10:36.913Z,34.56
2019-04-01T13:13:08.626Z,35.31
2019-04-01T13:15:40.435Z,35.61
2019-04-01T13:18:12.004Z,35.61
2019-04-01T13:20:43.640Z,35.47
2019-04-01T13:23:15.397Z,35.84
2019-04-01T13:25:47.169Z,35.99
2019-04-01T13:28:18.862Z,36.04
2019-04-01T13:30:50.681Z,34.65
2019-04-01T13:33:22.452Z,35.40
2019-04-01T13:35:54.207Z,35.86
2019-04-01T13:38:25.967Z,35.71
2019-04-01T13:40:57.632Z,36.19
2019-04-01T13:43:29.289Z,36.60
2019-04-01T13:46:01.142Z,36.29
2019-04-01T13:48:32.697Z,36.34
2019-04-01T13:51:04.479Z,36.72
2019-04-01T13:53:36.321Z,37.31
2019-04-01T13:56:10.261Z,37.12
2019-04-01T13:58:41.484Z,36.88
2019-04-01T14:01:14.157Z,36.70
2019-04-01T14:03:45.710Z,37.26
2019-04-01T14:06:17.471Z,37.58
2019-04-01T14:08:49.335Z,37.82
2019-04-01T14:11:21.201Z,37.84
2019-04-01T14:13:52.959Z,38.11
2019-04-01T14:16:24.455Z,38.70
2019-04-01T14:18:57.297Z,38.37
2019-04-01T14:21:29.087Z,38.70
2019-04-01T14:24:00.817Z,38.69
2019-04-01T14:26:32.579Z,39.35
2019-04-01T14:29:04.227Z,39.15
2019-04-01T14:31:35.869Z,39.56
2019-04-01T14:34:13.193Z,39.55
2019-04-01T14:36:41.260Z,39.89
2019-04-01T14:39:12.835Z,39.89
2019-04-01T14:41:44.577Z,40.20
2019-04-01T14:44:16.134Z,40.40
2019-04-01T14:46:47.894Z,40.57
2019-04-01T14:49:19.299Z,40.40
2019-04-01T14:51:51.002Z,40.54
2019-04-01T14:54:22.659Z,40.28
2019-04-01T14:56:54.312Z,40.48
2019-04-01T14:59:25.767Z,40.56
2019-04-01T15:01:57.528Z,40.74
2019-04-01T15:04:29.285Z,40.70
2019-04-01T15:07:01.152Z,40.74
2019-04-01T15:09:32.799Z,40.74
2019-04-01T15:12:04.570Z,41.30
2019-04-01T15:14:36.434Z,41.75
2019-04-01T15:17:09.215Z,41.93
2019-04-01T15:19:40.875Z,42.33
2019-04-01T15:22:12.737Z,42.36
2019-04-01T15:24:44.293Z,42.62
2019-04-01T15:27:15.742Z,43.34
2019-04-01T15:29:47.512Z,43.22
2019-04-01T15:32:18.983Z,43.52
2019-04-01T15:34:50.726Z,43.73
2019-04-01T15:37:23.177Z,43.94
2019-04-01T15:39:54.851Z,43.86
2019-04-01T15:42:26.407Z,44.01
2019-04-01T15:44:58.275Z,43.76
2019-04-01T15:47:29.635Z,44.10
2019-04-01T15:50:01.383Z,43.72
2019-04-01T15:52:33.721Z,43.81
2019-04-01T15:55:07.044Z,44.24
2019-04-01T15:57:38.706Z,44.56
2019-04-01T16:00:10.263Z,44.62
2019-04-01T16:02:43.661Z,44.24
2019-04-01T16:05:15.318Z,44.25
2019-04-01T16:07:46.768Z,44.50
2019-04-01T16:10:20.971Z,44.31
2019-04-01T16:12:52.546Z,44.65
2019-04-01T16:15:24.372Z,44.58
2019-04-01T16:17:56.167Z,44.47
2019-04-01T16:20:27.633Z,44.97
2019-04-01T16:22:59.277Z,44.66
2019-04-01T16:25:30.930Z,45.37
2019-04-01T16:28:02.591Z,45.24
2019-04-01T16:30:35.059Z,45.22
2019-04-01T16:33:06.858Z,45.63
2019-04-01T16:35:38.507Z,45.34
2019-04-01T16:38:10.359Z,45.81
2019-04-01T16:40:42.011Z,45.62
2019-04-01T16:43:13.563Z,45.46
2019-04-01T16:45:45.015Z,45.76
2019-04-01T16:48:16.716Z,45.80
2019-04-01T16:50:48.317Z,45.89
2019-04-01T16:53:19.905Z,46.17
2019-04-01T16:55:51.638Z,46.30
2019-04-01T16:58:23.205Z,46.40
2019-04-01T17:00:55.261Z,46.10
2019-04-01T17:03:26.934Z,46.36
2019-04-01T17:05:58.493Z,46.45
2019-04-01T17:08:30.146Z,46.31
2019-04-01T17:11:02.183Z,46.29
2019-04-01T17:13:34.176Z,46.23
2019-04-01T17:16:05.671Z,46.30
2019-04-01T17:18:37.621Z,46.40
2019-04-01T17:21:09.459Z,45.73
2019-04-01T17:23:42.077Z,45.53
2019-04-01T17:26:14.613Z,45.42
2019-04-01T17:28:46.376Z,45.02
2019-04-01T17:31:18.130Z,44.47
2019-04-01T17:33:50.000Z,44.24
2019-04-01T17:36:21.591Z,44.08
2019-04-01T17:38:53.448Z,44.53
2019-04-01T17:41:25.095Z,44.04
2019-04-01T17:43:57.131Z,44.24
2019-04-01T17:46:29.918Z,44.06
2019-04-01T17:49:02.087Z,43.89
2019-04-01T17:51:33.630Z,44.17
2019-04-01T17:54:05.300Z,43.98
2019-04-01T17:56:37.101Z,43.55
2019-04-01T17:59:08.638Z,44.06
2019-04-01T18:01:40.285Z,43.72
2019-04-01T18:04:12.040Z,43.59
2019-04-01T18:06:43.492Z,44.01
2019-04-01T18:09:15.075Z,43.88
2019-04-01T18:11:46.804Z,44.06
2019-04-01T18:14:19.203Z,44.36
2019-04-01T18:16:50.891Z,44.28
2019-04-01T18:19:22.494Z,44.14
2019-04-01T18:21:54.266Z,44.41
2019-04-01T18:24:26.030Z,44.35
2019-04-01T18:26:57.485Z,44.25
2019-04-01T18:29:29.237Z,44.17
2019-04-01T18:32:02.277Z,43.80
2019-04-01T18:34:33.778Z,43.55
2019-04-01T18:37:05.296Z,43.64
2019-04-01T18:39:47.405Z,43.17
2019-04-01T18:42:10.085Z,43.16
2019-04-01T18:44:41.732Z,42.96
2019-04-01T18:47:13.503Z,43.23
2019-04-01T18:49:45.967Z,42.76
2019-04-01T18:52:17.627Z,42.85
2019-04-01T18:54:49.196Z,42.69
2019-04-01T18:57:20.958Z,42.40
2019-04-01T18:59:52.706Z,42.11
2019-04-01T19:02:24.371Z,42.15
2019-04-01T19:04:56.225Z,42.65
2019-04-01T19:07:27.784Z,42.67
2019-04-01T19:10:05.900Z,42.83
2019-04-01T19:12:32.555Z,42.81
2019-04-01T19:15:10.129Z,42.64
2019-04-01T19:17:42.301Z,42.26
2019-04-01T19:20:14.433Z,41.84
2019-04-01T19:22:46.123Z,41.88
